Time;durP1;ratioP1;P1;durP2;ratioP2;P2;SDS_P1;SDS_P2;PMS_P1;PMS_P2;Temp;Humidity;BMP_temperature;BMP_pressure;BME280_temperature;BME280_humidity;BME280_pressure;Samples;Min_cycle;Max_cycle;Signal;HPM_P1;HPM_P2
2022/03/14 00:00:58;;;;;;;25.27;9.38;;;1.90;27.90;;;;;;5032471;28;46699;-63
2022/03/14 00:03:25;;;;;;;16.40;8.82;;;1.90;27.90;;;;;;5034202;28;46643;-63
2022/03/14 00:05:51;;;;;;;14.48;8.25;;;1.90;28.00;;;;;;5033731;28;46377;-62
2022/03/14 00:08:18;;;;;;;16.60;9.07;;;2.00;28.00;;;;;;5031615;28;46434;-63
2022/03/14 00:10:45;;;;;;;18.45;9.32;;;2.00;28.00;;;;;;5032171;28;46605;-64
2022/03/14 00:13:16;;;;;;;17.35;8.30;;;1.90;28.20;;;;;;5027267;28;47053;-64
2022/03/14 00:15:42;;;;;;;16.40;8.63;;;1.90;28.40;;;;;;5030897;28;45900;-64
2022/03/14 00:18:10;;;;;;;18.00;9.90;;;1.90;28.50;;;;;;5032015;28;46823;-63
2022/03/14 00:20:36;;;;;;;18.80;9.23;;;1.80;28.60;;;;;;5029395;28;46519;-63
2022/03/14 00:23:01;;;;;;;15.73;9.03;;;1.70;28.80;;;;;;5028624;28;47218;-63
2022/03/14 00:25:28;;;;;;;17.30;8.47;;;1.60;28.90;;;;;;5029059;28;46344;-63
2022/03/14 00:27:57;;;;;;;16.85;8.98;;;1.60;29.00;;;;;;5036873;28;46370;-64
2022/03/14 00:30:23;;;;;;;24.50;10.45;;;1.60;29.00;;;;;;5033672;28;46476;-63
2022/03/14 00:32:49;;;;;;;23.13;10.73;;;1.60;29.00;;;;;;5034031;28;46733;-64
2022/03/14 00:35:15;;;;;;;23.20;11.27;;;1.60;29.10;;;;;;5036783;28;46394;-64
2022/03/14 00:37:41;;;;;;;20.42;10.25;;;1.80;29.10;;;;;;5032035;28;46413;-64
2022/03/14 00:40:08;;;;;;;22.40;11.50;;;1.90;29.10;;;;;;5032345;28;46348;-62
2022/03/14 00:42:35;;;;;;;21.77;11.95;;;2.00;29.00;;;;;;5029352;28;46520;-62
2022/03/14 00:45:01;;;;;;;19.30;10.63;;;2.20;28.90;;;;;;5027421;28;46449;-62
2022/03/14 00:47:28;;;;;;;17.97;10.00;;;2.20;28.70;;;;;;5028137;28;46536;-62
2022/03/14 00:49:53;;;;;;;19.35;9.80;;;2.20;28.90;;;;;;5027981;28;46470;-63
2022/03/14 00:52:19;;;;;;;17.53;9.10;;;2.10;29.10;;;;;;5022492;28;46463;-63
2022/03/14 00:54:45;;;;;;;16.87;9.30;;;2.00;29.10;;;;;;5026568;28;46448;-64
2022/03/14 00:57:11;;;;;;;23.67;10.40;;;1.90;29.30;;;;;;5039613;28;46271;-64
2022/03/14 00:59:39;;;;;;;20.47;11.20;;;1.90;29.50;;;;;;5037555;28;45804;-64
2022/03/14 01:02:06;;;;;;;21.58;10.40;;;1.90;29.60;;;;;;5034351;28;46255;-64
2022/03/14 01:04:31;;;;;;;19.48;10.30;;;1.80;29.70;;;;;;5034069;28;46470;-63
2022/03/14 01:06:57;;;;;;;18.50;10.63;;;1.80;29.80;;;;;;5036534;28;46429;-63
2022/03/14 01:09:23;;;;;;;31.70;12.37;;;1.80;29.90;;;;;;5031113;28;46386;-63
2022/03/14 01:11:48;;;;;;;18.27;10.77;;;1.80;29.80;;;;;;5029885;28;46556;-63
2022/03/14 01:14:14;;;;;;;19.60;10.87;;;1.90;29.90;;;;;;5030148;28;46385;-64
2022/03/14 01:16:40;;;;;;;25.47;11.87;;;2.00;30.00;;;;;;5028774;28;46434;-64
2022/03/14 01:19:11;;;;;;;21.65;11.75;;;2.10;30.00;;;;;;5026677;28;46411;-63
2022/03/14 01:21:38;;;;;;;21.65;11.23;;;2.20;30.00;;;;;;5031064;28;46315;-63
2022/03/14 01:24:04;;;;;;;20.42;11.20;;;2.30;30.00;;;;;;5030078;28;46292;-63
2022/03/14 01:26:30;;;;;;;20.83;11.48;;;2.50;29.90;;;;;;5032607;28;46397;-63
2022/03/14 01:28:55;;;;;;;29.00;13.90;;;2.60;29.80;;;;;;5029520;28;46703;-64
2022/03/14 01:31:21;;;;;;;29.50;15.00;;;2.90;29.80;;;;;;5027735;28;48248;-63
2022/03/14 01:33:46;;;;;;;25.73;13.43;;;3.00;29.60;;;;;;5032554;28;46415;-63
2022/03/14 01:36:12;;;;;;;22.30;12.40;;;3.20;29.60;;;;;;5029939;28;46492;-65
2022/03/14 01:38:38;;;;;;;21.73;10.93;;;3.40;29.80;;;;;;5024163;28;46585;-63
2022/03/14 01:41:03;;;;;;;23.90;10.23;;;3.60;30.00;;;;;;5030458;28;47166;-65
2022/03/14 01:43:29;;;;;;;19.50;10.80;;;3.80;29.90;;;;;;5031641;28;46408;-63
2022/03/14 01:45:58;;;;;;;18.67;10.30;;;4.00;30.00;;;;;;5029769;28;46488;-64
2022/03/14 01:48:25;;;;;;;18.90;10.50;;;4.20;30.10;;;;;;5029198;28;46039;-63
2022/03/14 01:50:51;;;;;;;20.63;10.63;;;4.40;30.00;;;;;;5028420;28;48102;-64
2022/03/14 01:53:19;;;;;;;19.50;9.90;;;4.50;29.90;;;;;;5029685;28;46474;-63
2022/03/14 01:55:45;;;;;;;19.67;9.95;;;4.70;30.10;;;;;;5030794;28;46299;-65
2022/03/14 01:58:12;;;;;;;17.67;8.93;;;4.80;30.00;;;;;;5024977;28;46367;-63
2022/03/14 02:00:38;;;;;;;17.10;9.03;;;4.90;30.20;;;;;;5030878;28;46442;-65
2022/03/14 02:03:03;;;;;;;17.00;8.90;;;5.00;30.10;;;;;;5028980;28;46468;-63
2022/03/14 02:05:29;;;;;;;16.17;8.83;;;5.20;30.10;;;;;;5032921;28;46376;-65
2022/03/14 02:07:57;;;;;;;17.27;8.47;;;5.30;30.00;;;;;;5030260;28;46463;-64
2022/03/14 02:10:23;;;;;;;17.30;8.33;;;5.50;30.00;;;;;;5029606;28;46954;-63
2022/03/14 02:12:49;;;;;;;17.03;9.00;;;5.70;30.00;;;;;;5031041;28;46406;-65
2022/03/14 02:15:14;;;;;;;18.90;9.20;;;5.90;30.00;;;;;;5032387;28;46312;-65
2022/03/14 02:17:40;;;;;;;14.77;7.97;;;5.90;30.10;;;;;;5029857;28;46457;-64
2022/03/14 02:20:07;;;;;;;14.80;8.70;;;6.00;30.00;;;;;;5029525;28;46514;-63
2022/03/14 02:22:33;;;;;;;17.53;8.60;;;6.10;30.10;;;;;;5028793;28;46357;-64
2022/03/14 02:24:58;;;;;;;17.87;8.30;;;6.10;30.10;;;;;;5029234;28;46422;-68
2022/03/14 02:27:24;;;;;;;14.70;7.87;;;6.10;30.10;;;;;;5034455;28;45902;-65
2022/03/14 02:29:49;;;;;;;15.60;8.70;;;6.20;30.20;;;;;;5028753;28;46657;-64
2022/03/14 02:32:16;;;;;;;15.77;7.40;;;6.30;30.30;;;;;;5031456;28;46529;-63
2022/03/14 02:34:41;;;;;;;15.63;7.20;;;6.30;30.00;;;;;;5030781;28;46359;-63
2022/03/14 02:37:08;;;;;;;10.83;6.30;;;6.50;30.00;;;;;;5029397;28;46498;-64
2022/03/14 02:39:37;;;;;;;11.13;6.20;;;6.70;30.00;;;;;;5030653;28;47832;-64
2022/03/14 02:42:04;;;;;;;11.27;6.40;;;6.80;29.90;;;;;;5034829;28;46430;-63
2022/03/14 02:44:31;;;;;;;14.03;7.20;;;7.00;29.90;;;;;;5031433;28;46453;-64
2022/03/14 02:46:57;;;;;;;14.10;7.17;;;7.10;29.70;;;;;;5031308;28;46476;-65
2022/03/14 02:49:23;;;;;;;14.73;7.30;;;7.20;29.70;;;;;;5030084;28;46529;-64
2022/03/14 02:51:50;;;;;;;15.53;6.43;;;7.30;29.80;;;;;;5030906;28;46433;-63
2022/03/14 02:54:15;;;;;;;17.33;7.30;;;7.40;29.80;;;;;;5033689;28;46608;-64
2022/03/14 02:56:41;;;;;;;14.73;7.37;;;7.60;29.70;;;;;;5030902;28;46468;-64
2022/03/14 02:59:08;;;;;;;12.97;7.37;;;7.60;29.80;;;;;;5029809;28;46456;-63
2022/03/14 03:01:34;;;;;;;27.00;8.13;;;7.70;29.80;;;;;;5037197;28;46768;-64
2022/03/14 03:04:00;;;;;;;14.57;8.13;;;7.80;29.80;;;;;;5034095;28;46432;-64
2022/03/14 03:06:26;;;;;;;41.33;9.23;;;7.90;30.00;;;;;;5028413;28;46465;-65
2022/03/14 03:08:53;;;;;;;16.00;8.10;;;8.00;30.10;;;;;;5032045;28;47398;-64
2022/03/14 03:11:21;;;;;;;20.10;9.27;;;8.00;30.20;;;;;;5029009;28;46785;-64
2022/03/14 03:13:47;;;;;;;22.23;9.50;;;8.00;30.40;;;;;;5029279;28;46654;-65
2022/03/14 03:16:16;;;;;;;17.50;9.13;;;8.00;30.50;;;;;;5030266;28;46480;-64
2022/03/14 03:18:43;;;;;;;21.27;9.83;;;8.00;30.80;;;;;;5030987;28;46526;-65
2022/03/14 03:21:09;;;;;;;18.93;10.10;;;8.00;31.80;;;;;;5034736;28;46810;-64
2022/03/14 03:23:35;;;;;;;27.00;10.87;;;8.00;31.70;;;;;;5026991;28;46386;-64
2022/03/14 03:26:02;;;;;;;20.40;10.43;;;7.90;32.00;;;;;;5026707;28;46415;-64
2022/03/14 03:28:29;;;;;;;21.43;9.90;;;7.90;32.30;;;;;;5027114;28;46744;-64
2022/03/14 03:30:54;;;;;;;20.47;10.27;;;7.80;32.40;;;;;;5032159;28;46683;-64
2022/03/14 03:33:20;;;;;;;22.33;12.27;;;7.80;32.70;;;;;;5030928;28;46425;-64
2022/03/14 03:35:46;;;;;;;25.30;12.17;;;7.80;33.20;;;;;;5027090;28;46473;-64
2022/03/14 03:38:11;;;;;;;17.17;10.43;;;7.70;33.50;;;;;;5023623;28;49307;-65
2022/03/14 03:40:37;;;;;;;22.30;12.60;;;7.70;33.90;;;;;;5025539;28;46438;-64
2022/03/14 03:43:02;;;;;;;22.20;11.43;;;7.80;34.10;;;;;;5025188;28;46284;-64
2022/03/14 03:45:28;;;;;;;19.63;11.17;;;7.80;34.40;;;;;;5036356;28;46355;-64
2022/03/14 03:47:54;;;;;;;40.27;12.97;;;7.80;34.40;;;;;;5035830;28;47200;-64
2022/03/14 03:50:20;;;;;;;20.03;11.77;;;7.80;34.50;;;;;;5028970;28;46358;-63
2022/03/14 03:52:45;;;;;;;24.20;11.47;;;7.80;35.20;;;;;;5031741;28;46932;-65
2022/03/14 03:55:11;;;;;;;22.90;13.20;;;7.70;35.40;;;;;;5029309;28;46527;-63
2022/03/14 03:57:37;;;;;;;17.80;11.07;;;7.70;35.70;;;;;;5031690;28;46429;-64
2022/03/14 04:00:05;;;;;;;22.57;11.70;;;7.60;37.80;;;;;;5033383;28;46390;-65
2022/03/14 04:02:35;;;;;;;27.33;11.90;;;7.50;36.80;;;;;;5029579;28;45803;-64
2022/03/14 04:05:02;;;;;;;19.27;12.27;;;7.40;36.90;;;;;;5030503;28;46542;-65
2022/03/14 04:07:29;;;;;;;22.80;11.57;;;7.30;37.10;;;;;;5034639;28;46448;-64
2022/03/14 04:09:56;;;;;;;21.37;11.97;;;7.30;37.20;;;;;;5026367;28;45910;-64
2022/03/14 04:12:26;;;;;;;28.80;12.77;;;7.20;37.10;;;;;;5033442;28;46397;-64
2022/03/14 04:14:58;;;;;;;22.40;12.30;;;7.10;37.00;;;;;;5027726;28;46368;-64
2022/03/14 04:17:25;;;;;;;22.17;11.53;;;7.00;36.80;;;;;;5029782;28;46525;-64
2022/03/14 04:19:52;;;;;;;19.73;11.73;;;6.90;37.20;;;;;;5032165;28;46497;-63
2022/03/14 04:22:20;;;;;;;18.97;11.90;;;6.90;37.60;;;;;;5028911;28;46440;-64
2022/03/14 04:24:46;;;;;;;24.27;12.87;;;6.80;37.80;;;;;;5027527;28;46413;-63
2022/03/14 04:27:11;;;;;;;22.33;12.13;;;6.70;37.90;;;;;;5033772;28;46436;-63
2022/03/14 04:29:37;;;;;;;19.13;11.27;;;6.70;39.40;;;;;;5032933;28;45963;-63
2022/03/14 04:32:03;;;;;;;20.77;11.60;;;6.70;39.70;;;;;;5031481;28;46450;-64
2022/03/14 04:34:29;;;;;;;22.20;12.03;;;6.60;38.50;;;;;;5032069;28;46028;-63
2022/03/14 04:36:55;;;;;;;21.47;11.70;;;6.60;38.70;;;;;;5030651;28;46372;-64
2022/03/14 04:39:21;;;;;;;24.97;12.87;;;6.50;38.90;;;;;;5031230;28;46404;-63
2022/03/14 04:41:47;;;;;;;17.47;11.23;;;6.50;39.00;;;;;;5030793;28;46444;-63
2022/03/14 04:44:13;;;;;;;19.10;11.80;;;6.40;39.20;;;;;;5031910;28;46392;-63
2022/03/14 04:46:39;;;;;;;20.73;10.90;;;6.50;39.40;;;;;;5031220;28;46353;-64
2022/03/14 04:49:05;;;;;;;18.77;11.10;;;6.40;39.50;;;;;;5028990;28;46475;-64
2022/03/14 04:51:32;;;;;;;18.80;10.87;;;6.40;39.70;;;;;;5036499;28;46704;-63
2022/03/14 04:53:58;;;;;;;19.97;10.70;;;6.40;39.90;;;;;;5029304;28;46253;-65
2022/03/14 04:56:23;;;;;;;22.90;11.30;;;6.40;39.90;;;;;;5032390;28;46412;-65
2022/03/14 04:58:49;;;;;;;19.10;10.03;;;6.50;40.00;;;;;;5034656;28;46280;-65
2022/03/14 05:01:15;;;;;;;19.43;10.20;;;6.50;40.00;;;;;;5032228;28;46449;-65
2022/03/14 05:03:41;;;;;;;19.10;11.00;;;6.60;40.00;;;;;;5032133;28;46837;-65
2022/03/14 05:06:06;;;;;;;14.50;9.00;;;6.70;40.00;;;;;;5033661;28;46419;-65
2022/03/14 05:08:32;;;;;;;14.80;8.63;;;6.90;40.00;;;;;;5039238;28;46438;-64
2022/03/14 05:10:58;;;;;;;13.10;7.50;;;7.00;39.70;;;;;;5030487;28;45940;-63
2022/03/14 05:13:24;;;;;;;14.47;8.57;;;7.10;39.60;;;;;;5026636;28;46079;-63
2022/03/14 05:15:50;;;;;;;13.17;8.67;;;7.20;39.70;;;;;;5027835;28;46203;-64
2022/03/14 05:18:16;;;;;;;17.87;9.03;;;7.20;39.70;;;;;;5033311;28;46398;-64
2022/03/14 05:20:41;;;;;;;11.27;7.40;;;7.30;39.80;;;;;;5031842;28;46272;-64
2022/03/14 05:23:07;;;;;;;11.37;7.00;;;7.40;39.90;;;;;;5025992;28;46518;-65
2022/03/14 05:25:33;;;;;;;13.30;6.20;;;7.50;39.90;;;;;;5032133;28;46518;-64
2022/03/14 05:27:59;;;;;;;11.90;6.27;;;7.50;39.80;;;;;;5032988;28;46674;-65
2022/03/14 05:30:25;;;;;;;10.47;5.80;;;7.60;40.00;;;;;;5031442;28;46519;-64
2022/03/14 05:32:51;;;;;;;11.33;6.77;;;7.60;40.10;;;;;;5025878;28;46730;-64
2022/03/14 05:35:17;;;;;;;8.97;5.73;;;7.70;40.30;;;;;;5026491;28;46882;-64
2022/03/14 05:37:43;;;;;;;11.53;5.80;;;7.70;40.30;;;;;;5030902;28;45906;-64
2022/03/14 05:40:11;;;;;;;7.63;5.47;;;7.80;41.60;;;;;;5032450;28;46359;-65
2022/03/14 05:42:36;;;;;;;7.72;5.10;;;7.80;42.60;;;;;;5029116;28;46274;-65
2022/03/14 05:45:02;;;;;;;14.40;5.90;;;7.80;42.50;;;;;;5029472;28;46358;-64
2022/03/14 05:47:28;;;;;;;8.57;5.20;;;7.90;42.70;;;;;;5028980;28;46382;-64
2022/03/14 05:49:54;;;;;;;9.70;6.03;;;7.90;42.60;;;;;;5033863;28;46431;-65
2022/03/14 05:52:21;;;;;;;8.90;5.30;;;8.00;42.80;;;;;;5030034;28;46575;-65
2022/03/14 05:54:47;;;;;;;8.20;5.07;;;8.00;42.90;;;;;;5026664;28;46376;-65
2022/03/14 05:57:12;;;;;;;6.93;5.00;;;8.00;42.70;;;;;;5025646;28;46441;-65
2022/03/14 05:59:38;;;;;;;6.93;4.83;;;8.00;42.90;;;;;;5026163;28;46571;-65
2022/03/14 06:02:03;;;;;;;8.10;4.63;;;8.10;42.90;;;;;;5020778;28;46424;-65
2022/03/14 06:04:29;;;;;;;6.23;4.37;;;8.10;43.20;;;;;;5035265;28;47062;-65
2022/03/14 06:06:56;;;;;;;6.87;4.70;;;8.10;43.20;;;;;;5036841;28;46529;-65
2022/03/14 06:09:25;;;;;;;9.43;4.93;;;8.10;43.20;;;;;;5035712;28;46277;-64
2022/03/14 06:11:53;;;;;;;5.77;3.93;;;8.20;43.60;;;;;;5032717;28;46953;-64
2022/03/14 06:14:19;;;;;;;4.67;3.20;;;8.20;44.30;;;;;;5030983;28;46547;-65
2022/03/14 06:16:45;;;;;;;4.37;2.60;;;8.20;44.80;;;;;;5030826;28;46434;-65
2022/03/14 06:19:10;;;;;;;3.80;2.37;;;8.30;44.70;;;;;;5032890;28;46431;-65
2022/03/14 06:21:38;;;;;;;3.70;2.23;;;8.30;44.60;;;;;;5030462;28;46443;-65
2022/03/14 06:24:05;;;;;;;4.43;2.30;;;8.40;45.50;;;;;;5027303;28;47096;-64
2022/03/14 06:26:34;;;;;;;3.40;2.20;;;8.50;45.30;;;;;;5027498;28;46505;-64
2022/03/14 06:29:00;;;;;;;2.57;1.70;;;8.50;45.00;;;;;;5026843;28;46406;-66
2022/03/14 06:31:26;;;;;;;4.00;2.27;;;8.60;44.80;;;;;;5033675;28;46425;-65
2022/03/14 06:33:52;;;;;;;4.63;2.93;;;8.60;45.10;;;;;;5033716;28;46319;-64
2022/03/14 06:36:17;;;;;;;5.93;2.90;;;8.60;44.80;;;;;;5038615;28;46295;-63
2022/03/14 06:38:45;;;;;;;5.03;2.57;;;8.70;45.00;;;;;;5033730;28;46393;-63
2022/03/14 06:41:11;;;;;;;4.97;2.70;;;8.80;45.00;;;;;;5031795;28;46642;-65
2022/03/14 06:43:37;;;;;;;4.50;2.57;;;8.80;44.80;;;;;;5034649;28;46350;-65
2022/03/14 06:46:04;;;;;;;3.57;2.27;;;8.90;44.60;;;;;;5032027;28;46383;-64
2022/03/14 06:48:30;;;;;;;4.63;2.40;;;8.90;44.50;;;;;;5033152;28;46479;-65
2022/03/14 06:50:56;;;;;;;6.23;2.87;;;9.00;43.30;;;;;;5032844;28;46403;-64
2022/03/14 06:53:22;;;;;;;5.10;2.60;;;9.10;44.20;;;;;;5036198;28;46267;-64
2022/03/14 06:55:47;;;;;;;7.50;2.43;;;9.00;44.30;;;;;;5038475;28;46307;-64
2022/03/14 06:58:13;;;;;;;5.57;2.67;;;9.00;44.40;;;;;;5030016;28;46410;-64
2022/03/14 07:00:40;;;;;;;5.33;2.30;;;8.90;44.50;;;;;;5031796;28;46635;-64
2022/03/14 07:03:05;;;;;;;3.40;2.20;;;8.80;44.80;;;;;;5025543;28;47136;-64
2022/03/14 07:05:31;;;;;;;3.90;2.30;;;8.70;45.00;;;;;;5033690;28;46303;-65
2022/03/14 07:07:56;;;;;;;11.80;3.10;;;8.70;45.10;;;;;;5028552;28;46153;-65
2022/03/14 07:10:22;;;;;;;5.57;2.37;;;8.80;45.00;;;;;;5031809;28;46505;-63
2022/03/14 07:12:48;;;;;;;4.33;2.23;;;9.30;44.80;;;;;;5029923;28;46348;-62
2022/03/14 07:15:21;;;;;;;3.63;1.90;;;9.80;43.80;;;;;;5031540;28;46700;-64
2022/03/14 07:17:47;;;;;;;4.43;1.93;;;10.30;42.20;;;;;;5035644;28;46490;-64
2022/03/14 07:20:13;;;;;;;3.30;1.83;;;10.60;41.30;;;;;;5030970;28;46368;-63
2022/03/14 07:22:56;;;;;;;5.33;2.13;;;10.90;40.90;;;;;;5031312;28;47103;-65
2022/03/14 07:25:32;;;;;;;3.20;1.67;;;11.20;40.50;;;;;;5031157;28;46488;-63
2022/03/14 07:28:05;;;;;;;3.33;1.60;;;11.10;39.90;;;;;;5029029;28;46333;-64
2022/03/14 07:30:31;;;;;;;3.30;1.70;;;11.10;41.10;;;;;;5031242;28;46401;-63
2022/03/14 07:32:57;;;;;;;2.63;1.20;;;10.90;40.50;;;;;;5027946;28;47264;-65
2022/03/14 07:35:24;;;;;;;6.43;1.30;;;10.70;40.90;;;;;;5028106;28;46418;-63
2022/03/14 07:37:50;;;;;;;3.85;1.35;;;10.30;40.90;;;;;;5030948;28;46439;-66
2022/03/14 07:40:16;;;;;;;2.80;1.60;;;10.00;41.60;;;;;;5030029;28;46435;-64
2022/03/14 07:42:43;;;;;;;2.70;1.20;;;9.80;43.30;;;;;;5031235;28;46413;-64
2022/03/14 07:45:10;;;;;;;2.00;1.17;;;9.80;43.50;;;;;;5030025;28;45925;-64
2022/03/14 07:47:36;;;;;;;2.30;1.20;;;9.90;43.30;;;;;;5035190;28;46232;-65
2022/03/14 07:50:05;;;;;;;2.53;1.40;;;10.10;42.10;;;;;;5030945;28;46151;-64
2022/03/14 07:52:30;;;;;;;2.33;1.40;;;10.20;41.70;;;;;;5032149;28;47127;-65
2022/03/14 07:54:56;;;;;;;2.03;1.20;;;10.40;41.30;;;;;;5031910;28;46375;-62
2022/03/14 07:57:21;;;;;;;3.07;1.40;;;10.50;41.10;;;;;;5032104;28;46342;-64
2022/03/14 07:59:47;;;;;;;3.37;1.90;;;10.70;40.70;;;;;;5027674;28;46421;-63
2022/03/14 08:02:13;;;;;;;2.30;1.43;;;10.70;40.70;;;;;;5028973;28;46235;-67
2022/03/14 08:04:40;;;;;;;2.93;1.50;;;10.80;41.60;;;;;;5032196;28;46260;-65
2022/03/14 08:07:06;;;;;;;2.73;1.53;;;10.90;40.00;;;;;;5032777;28;46371;-65
2022/03/14 08:09:32;;;;;;;1.97;1.27;;;11.00;39.80;;;;;;5025702;28;46377;-64
2022/03/14 08:11:59;;;;;;;3.97;1.60;;;11.10;39.40;;;;;;5031439;28;46523;-64
2022/03/14 08:14:25;;;;;;;1.93;1.20;;;11.10;39.40;;;;;;5033406;28;46453;-64
2022/03/14 08:16:50;;;;;;;2.40;1.40;;;11.10;39.40;;;;;;5027465;28;46111;-65
2022/03/14 08:19:16;;;;;;;1.93;1.20;;;11.20;39.50;;;;;;5025645;28;46382;-64
2022/03/14 08:21:42;;;;;;;1.87;1.20;;;11.20;39.50;;;;;;5025449;28;46718;-64
2022/03/14 08:24:08;;;;;;;1.87;1.00;;;11.30;39.70;;;;;;5036196;28;45827;-64
2022/03/14 08:26:34;;;;;;;1.53;0.90;;;11.40;39.10;;;;;;5032083;28;46644;-66
2022/03/14 08:29:00;;;;;;;2.13;1.00;;;11.50;38.80;;;;;;5035952;28;46414;-64
2022/03/14 08:31:26;;;;;;;1.67;1.17;;;11.60;38.50;;;;;;5028727;28;47060;-64
2022/03/14 08:33:52;;;;;;;1.67;0.87;;;11.60;38.50;;;;;;5028333;28;46547;-66
2022/03/14 08:36:20;;;;;;;5.70;1.20;;;11.70;38.00;;;;;;5031506;28;46441;-65
2022/03/14 08:38:47;;;;;;;1.47;0.80;;;11.80;37.90;;;;;;5027443;28;46065;-65
2022/03/14 08:41:16;;;;;;;1.97;1.23;;;11.70;37.40;;;;;;5026311;28;46835;-64
2022/03/14 08:43:43;;;;;;;1.57;0.90;;;11.50;37.80;;;;;;5024943;28;46452;-65
2022/03/14 08:46:09;;;;;;;2.00;1.20;;;11.50;37.80;;;;;;5022669;28;46398;-64
2022/03/14 08:48:34;;;;;;;1.90;0.90;;;11.60;37.70;;;;;;5021784;28;46389;-64
2022/03/14 08:51:00;;;;;;;2.90;0.93;;;11.50;36.90;;;;;;5034453;28;48184;-64
2022/03/14 08:53:25;;;;;;;8.43;1.83;;;11.70;37.10;;;;;;5033434;28;46464;-64
2022/03/14 08:55:52;;;;;;;2.60;1.00;;;11.80;36.90;;;;;;5029275;28;46415;-63
2022/03/14 08:58:17;;;;;;;3.40;1.10;;;11.90;36.60;;;;;;5028094;28;46700;-64
2022/03/14 09:00:43;;;;;;;2.90;1.10;;;11.80;36.90;;;;;;5032397;28;46361;-64
2022/03/14 09:03:09;;;;;;;1.70;1.10;;;11.90;36.60;;;;;;5026130;28;46334;-64
2022/03/14 09:05:35;;;;;;;2.20;1.00;;;12.10;36.40;;;;;;5029827;28;46791;-65
2022/03/14 09:08:02;;;;;;;4.10;1.13;;;12.30;36.20;;;;;;5031386;28;45910;-65
2022/03/14 09:10:31;;;;;;;2.00;0.83;;;12.50;35.60;;;;;;5025971;28;47303;-65
2022/03/14 09:12:58;;;;;;;1.97;0.90;;;12.20;35.00;;;;;;5026045;28;46207;-63
2022/03/14 09:15:24;;;;;;;3.87;1.10;;;12.30;35.30;;;;;;5027104;28;46457;-64
2022/03/14 09:17:54;;;;;;;1.77;1.10;;;12.30;35.00;;;;;;5033500;28;46547;-64
2022/03/14 09:20:21;;;;;;;13.10;1.43;;;12.10;35.00;;;;;;5030226;28;46437;-65
2022/03/14 09:22:47;;;;;;;2.60;1.10;;;12.00;35.50;;;;;;5030939;28;46629;-64
2022/03/14 09:25:14;;;;;;;4.50;1.03;;;11.90;35.70;;;;;;5027619;28;46300;-65
2022/03/14 09:27:41;;;;;;;2.40;1.20;;;12.00;36.10;;;;;;5027829;28;46688;-66
2022/03/14 09:30:07;;;;;;;2.10;1.23;;;12.10;36.00;;;;;;5035819;28;46489;-64
2022/03/14 09:32:33;;;;;;;4.07;1.20;;;12.30;35.80;;;;;;5033100;28;46505;-63
2022/03/14 09:34:59;;;;;;;2.20;1.23;;;12.70;35.20;;;;;;5028009;28;46474;-64
2022/03/14 09:37:26;;;;;;;2.90;1.00;;;13.10;34.70;;;;;;5032251;28;46510;-66
2022/03/14 09:39:52;;;;;;;2.03;1.07;;;13.20;33.60;;;;;;5032912;28;46663;-63
2022/03/14 09:42:20;;;;;;;2.27;1.20;;;13.00;32.80;;;;;;5028489;28;46392;-64
2022/03/14 09:44:53;;;;;;;2.30;1.10;;;12.90;33.10;;;;;;5027974;28;46096;-63
2022/03/14 09:47:22;;;;;;;2.43;1.20;;;13.00;33.10;;;;;;5025249;28;46508;-65
2022/03/14 09:49:51;;;;;;;2.67;1.20;;;12.60;32.20;;;;;;5031654;28;46826;-65
2022/03/14 09:52:17;;;;;;;2.30;1.40;;;12.40;32.40;;;;;;5031257;28;46445;-65
2022/03/14 09:54:43;;;;;;;6.50;1.20;;;12.40;32.20;;;;;;5030777;28;46353;-65
2022/03/14 09:57:08;;;;;;;1.90;1.00;;;12.40;31.90;;;;;;5029922;28;46610;-65
2022/03/14 09:59:36;;;;;;;2.57;1.50;;;12.20;32.00;;;;;;5029868;28;46222;-64
2022/03/14 10:02:02;;;;;;;2.20;1.33;;;12.50;32.50;;;;;;5029172;28;46892;-65
2022/03/14 10:04:28;;;;;;;1.80;1.00;;;12.60;31.40;;;;;;5029855;28;46411;-65
2022/03/14 10:06:53;;;;;;;4.23;1.30;;;12.90;31.10;;;;;;5046938;28;46538;-64
2022/03/14 10:09:19;;;;;;;2.57;1.20;;;13.10;30.50;;;;;;5028618;28;47262;-65
2022/03/14 10:11:44;;;;;;;2.73;1.20;;;13.30;30.00;;;;;;5030653;28;46712;-64
2022/03/14 10:14:17;;;;;;;5.80;1.43;;;13.20;28.40;;;;;;5032108;28;46491;-64
2022/03/14 10:16:44;;;;;;;3.10;1.57;;;13.10;28.60;;;;;;5032305;28;46713;-65
2022/03/14 10:19:10;;;;;;;3.50;1.20;;;13.10;29.30;;;;;;5030480;28;48271;-64
2022/03/14 10:21:46;;;;;;;2.80;1.30;;;13.00;29.20;;;;;;5031848;28;46064;-64
2022/03/14 10:24:13;;;;;;;2.97;1.40;;;13.10;29.50;;;;;;5029907;28;46367;-63
2022/03/14 10:26:45;;;;;;;3.50;1.30;;;13.30;29.40;;;;;;5030837;28;45845;-63
2022/03/14 10:29:14;;;;;;;4.50;2.43;;;13.50;29.20;;;;;;5028057;28;46660;-64
2022/03/14 10:31:45;;;;;;;3.73;1.23;;;13.60;28.90;;;;;;5030216;28;46744;-63
2022/03/14 10:34:18;;;;;;;5.50;1.40;;;13.70;28.70;;;;;;5028638;28;46517;-63
2022/03/14 10:36:47;;;;;;;1.60;1.00;;;13.60;28.60;;;;;;5031487;28;46488;-64
2022/03/14 10:39:25;;;;;;;7.50;1.30;;;13.90;28.90;;;;;;5031726;28;47169;-63
2022/03/14 10:42:04;;;;;;;3.10;1.57;;;14.10;28.90;;;;;;5030053;28;46412;-64
2022/03/14 10:44:31;;;;;;;4.23;1.37;;;14.30;28.40;;;;;;5034146;28;46509;-64
2022/03/14 10:47:09;;;;;;;1.80;0.87;;;14.40;27.80;;;;;;5032086;28;46470;-64
2022/03/14 10:49:37;;;;;;;3.03;1.50;;;14.40;28.00;;;;;;5030908;28;46655;-63
2022/03/14 10:52:06;;;;;;;2.37;1.30;;;14.40;27.80;;;;;;5028959;28;46508;-63
2022/03/14 10:54:36;;;;;;;2.50;1.37;;;14.30;28.70;;;;;;5025591;28;46406;-65
2022/03/14 10:57:01;;;;;;;8.17;1.70;;;14.40;27.70;;;;;;5027211;28;46394;-64
2022/03/14 10:59:44;;;;;;;7.80;1.40;;;14.60;27.30;;;;;;5028895;28;46095;-64
2022/03/14 11:02:17;;;;;;;2.70;1.60;;;14.60;27.20;;;;;;5024375;28;46450;-64
2022/03/14 11:04:59;;;;;;;3.40;1.50;;;14.20;26.30;;;;;;5027637;28;46433;-64
2022/03/14 11:07:26;;;;;;;4.70;2.17;;;13.80;26.60;;;;;;5029807;28;46386;-64
2022/03/14 11:09:53;;;;;;;3.90;2.33;;;14.00;26.90;;;;;;5027398;28;46931;-65
2022/03/14 11:12:21;;;;;;;3.10;1.47;;;13.90;26.60;;;;;;5030300;28;46469;-65
2022/03/14 11:15:04;;;;;;;4.50;2.00;;;14.20;26.50;;;;;;5034120;28;46442;-65
2022/03/14 11:17:31;;;;;;;4.13;1.70;;;14.30;26.00;;;;;;5027423;28;46432;-64
2022/03/14 11:19:58;;;;;;;2.60;1.40;;;14.50;26.10;;;;;;5027637;28;47384;-64
2022/03/14 11:22:26;;;;;;;4.80;2.30;;;14.60;25.30;;;;;;5033654;28;46460;-64
2022/03/14 11:24:54;;;;;;;3.07;1.60;;;14.70;25.40;;;;;;5030113;28;46512;-65
2022/03/14 11:27:24;;;;;;;2.57;1.40;;;14.70;25.50;;;;;;5027085;28;46352;-64
2022/03/14 11:29:53;;;;;;;3.47;1.50;;;15.00;25.50;;;;;;5032809;28;46649;-65
2022/03/14 11:32:20;;;;;;;3.03;1.20;;;15.00;25.00;;;;;;5023613;28;46573;-64
2022/03/14 11:34:47;;;;;;;3.53;1.70;;;15.10;25.00;;;;;;5026494;28;46727;-65
2022/03/14 11:37:13;;;;;;;4.80;2.13;;;15.20;25.10;;;;;;5026161;28;46824;-64
2022/03/14 11:39:40;;;;;;;3.60;1.90;;;15.40;24.80;;;;;;5024543;28;46804;-64
2022/03/14 11:42:06;;;;;;;4.73;1.70;;;15.30;24.40;;;;;;5024885;28;46625;-64
2022/03/14 11:44:33;;;;;;;5.43;1.83;;;15.20;24.20;;;;;;5027518;28;46306;-64
2022/03/14 11:46:59;;;;;;;4.70;2.00;;;15.10;24.50;;;;;;5033198;28;46796;-64
2022/03/14 11:49:28;;;;;;;2.70;1.60;;;15.00;24.50;;;;;;5030386;28;46477;-64
2022/03/14 11:52:36;;;;;;;2.97;1.50;;;15.20;24.90;;;;;;5030237;28;46445;-64
2022/03/14 11:55:04;;;;;;;6.03;2.60;;;15.20;24.70;;;;;;5012547;28;46547;-65
2022/03/14 11:57:39;;;;;;;6.03;2.33;;;15.10;24.70;;;;;;5027866;28;46500;-63
2022/03/14 12:00:32;;;;;;;5.73;1.90;;;15.10;23.50;;;;;;5029933;28;46374;-64
2022/03/14 12:03:02;;;;;;;3.77;1.93;;;14.90;23.20;;;;;;5027849;28;46828;-65
2022/03/14 12:05:30;;;;;;;4.33;2.07;;;14.70;23.10;;;;;;5022112;28;46515;-64
2022/03/14 12:07:56;;;;;;;5.30;2.67;;;14.80;23.60;;;;;;5025391;28;46564;-62
2022/03/14 12:10:29;;;;;;;3.93;1.93;;;14.90;23.70;;;;;;5023612;28;46493;-63
2022/03/14 12:12:55;;;;;;;4.40;2.17;;;14.90;23.20;;;;;;5026030;28;45954;-64
2022/03/14 12:15:51;;;;;;;5.03;2.27;;;14.80;22.80;;;;;;5027115;28;46674;-64
2022/03/14 12:18:23;;;;;;;3.10;1.80;;;14.50;22.60;;;;;;5021553;28;45950;-64
2022/03/14 12:20:53;;;;;;;5.20;2.87;;;14.70;23.00;;;;;;5031007;28;46506;-63
2022/03/14 12:23:37;;;;;;;4.27;2.43;;;14.80;23.00;;;;;;5027160;28;46327;-64
2022/03/14 12:26:23;;;;;;;7.10;1.47;;;14.80;22.20;;;;;;5028016;28;45851;-63
2022/03/14 12:28:49;;;;;;;2.63;1.67;;;14.90;22.60;;;;;;5029229;28;46335;-63
2022/03/14 12:31:16;;;;;;;3.63;1.40;;;14.80;22.70;;;;;;5028586;28;47046;-64
2022/03/14 12:33:49;;;;;;;4.33;1.70;;;14.70;22.70;;;;;;5032492;28;46504;-64
2022/03/14 12:36:23;;;;;;;13.33;2.27;;;14.70;23.30;;;;;;5032020;28;46398;-64
2022/03/14 12:39:11;;;;;;;3.00;1.70;;;14.90;23.30;;;;;;5035482;28;47042;-62
2022/03/14 12:41:40;;;;;;;7.23;2.73;;;14.90;22.90;;;;;;5028932;28;46605;-64
2022/03/14 12:44:24;;;;;;;3.63;1.70;;;14.80;23.10;;;;;;5027015;28;46823;-64
2022/03/14 12:46:52;;;;;;;3.03;1.83;;;14.90;23.10;;;;;;5031781;28;46786;-64